Time,TemperatureF,DewpointF,PressureIn,WindDirection,WindDirectionDegrees,WindSpeedMPH,WindSpeedGustMPH,Humidity,HourlyPrecipIn,Conditions,Clouds,dailyrainin,SoftwareType,DateUTC
2013-04-13 00:08:00,37.4,36.0,29.73,North,355,2.0,5.0,94,0.00,,,0.00,weatherlink.com 1.10,2013-04-13 04:08:00,
2013-04-13 00:23:00,37.4,36.0,29.73,North,351,2.0,6.0,94,0.00,,,0.00,weatherlink.com 1.10,2013-04-13 04:23:00,
2013-04-13 00:38:00,37.5,36.0,29.73,NNW,341,2.0,4.0,94,0.00,,,0.00,weatherlink.com 1.10,2013-04-13 04:38:00,
2013-04-13 00:53:00,37.5,36.0,29.72,NNW,345,1.0,7.0,94,0.00,,,0.00,weatherlink.com 1.10,2013-04-13 04:53:00,
2013-04-13 01:08:00,37.6,36.0,29.72,North,360,4.0,8.0,95,0.00,,,0.00,weatherlink.com 1.10,2013-04-13 05:08:00,
2013-04-13 01:23:00,37.5,36.0,29.74,NNW,342,1.0,6.0,94,0.00,,,0.00,weatherlink.com 1.10,2013-04-13 05:23:00,
2013-04-13 01:38:00,37.6,36.0,29.72,North,5,2.0,6.0,94,0.00,,,0.00,weatherlink.com 1.10,2013-04-13 05:38:00,
2013-04-13 01:53:00,37.5,36.0,29.73,North,355,3.0,6.0,94,0.00,,,0.00,weatherlink.com 1.10,2013-04-13 05:53:00,
2013-04-13 02:08:00,37.4,36.0,29.72,NNW,345,1.0,6.0,94,0.00,,,0.00,weatherlink.com 1.10,2013-04-13 06:08:00,
2013-04-13 02:23:00,37.1,36.0,29.73,NNW,346,2.0,7.0,94,0.01,,,0.01,weatherlink.com 1.10,2013-04-13 06:23:00,
2013-04-13 02:38:00,37.1,36.0,29.75,North,355,1.0,6.0,94,0.01,,,0.01,weatherlink.com 1.10,2013-04-13 06:38:00,
2013-04-13 02:53:00,36.9,35.0,29.73,North,5,6.0,6.0,94,0.01,,,0.01,weatherlink.com 1.10,2013-04-13 06:53:00,
2013-04-13 03:08:00,36.8,35.0,29.73,North,11,1.0,8.0,94,0.01,,,0.01,weatherlink.com 1.10,2013-04-13 07:08:00,
2013-04-13 03:23:00,36.6,35.0,29.70,NW,309,4.0,12.0,94,0.00,,,0.01,weatherlink.com 1.10,2013-04-13 07:23:00,
2013-04-13 03:38:00,36.5,35.0,29.70,NNE,19,4.0,6.0,94,0.00,,,0.01,weatherlink.com 1.10,2013-04-13 07:38:00,
2013-04-13 03:53:00,36.5,35.0,29.69,North,360,3.0,9.0,94,0.00,,,0.01,weatherlink.com 1.10,2013-04-13 07:53:00,
2013-04-13 04:08:00,36.3,35.0,29.69,NE,34,3.0,7.0,93,0.00,,,0.01,weatherlink.com 1.10,2013-04-13 08:08:00,
2013-04-13 04:23:00,36.3,35.0,29.70,NNW,341,3.0,5.0,94,0.00,,,0.01,weatherlink.com 1.10,2013-04-13 08:23:00,
2013-04-13 04:39:00,36.4,35.0,29.70,North,5,2.0,7.0,93,0.01,,,0.02,weatherlink.com 1.10,2013-04-13 08:39:00,
2013-04-13 04:53:00,36.5,35.0,29.71,North,360,4.0,5.0,94,0.01,,,0.02,weatherlink.com 1.10,2013-04-13 08:53:00,
2013-04-13 05:08:00,36.4,35.0,29.71,North,355,1.0,5.0,94,0.01,,,0.02,weatherlink.com 1.10,2013-04-13 09:08:00,
2013-04-13 05:23:00,36.5,35.0,29.71,NNW,344,2.0,5.0,93,0.01,,,0.02,weatherlink.com 1.10,2013-04-13 09:23:00,
2013-04-13 05:38:00,36.4,35.0,29.71,North,351,2.0,4.0,93,0.00,,,0.02,weatherlink.com 1.10,2013-04-13 09:38:00,
2013-04-13 05:53:00,36.4,35.0,29.72,NNW,331,0.0,3.0,93,0.00,,,0.02,weatherlink.com 1.10,2013-04-13 09:53:00,
2013-04-13 06:08:00,36.3,35.0,29.73,NW,323,1.0,4.0,93,0.00,,,0.02,weatherlink.com 1.10,2013-04-13 10:08:00,
2013-04-13 06:23:00,36.3,35.0,29.73,NW,323,0.0,4.0,94,0.00,,,0.02,weatherlink.com 1.10,2013-04-13 10:23:00,
2013-04-13 06:38:00,36.4,35.0,29.73,North,360,0.0,3.0,94,0.00,,,0.02,weatherlink.com 1.10,2013-04-13 10:38:00,
2013-04-13 06:53:00,36.5,35.0,29.74,North,360,0.0,3.0,94,0.00,,,0.02,weatherlink.com 1.10,2013-04-13 10:53:00,
2013-04-13 07:08:00,36.9,35.0,29.74,North,350,0.0,4.0,93,0.00,,,0.02,weatherlink.com 1.10,2013-04-13 11:08:00,
2013-04-13 07:23:00,37.1,35.0,29.75,NNW,331,3.0,5.0,92,0.00,,,0.02,weatherlink.com 1.10,2013-04-13 11:23:00,
2013-04-13 07:53:00,37.4,35.0,29.75,NNE,13,2.0,5.0,91,0.00,,,0.02,weatherlink.com 1.10,2013-04-13 11:53:00,
2013-04-13 08:08:00,37.7,36.0,29.75,North,9,3.0,3.0,92,0.00,,,0.02,weatherlink.com 1.10,2013-04-13 12:08:00,
2013-04-13 08:24:00,38.2,36.0,29.74,NNE,19,2.0,5.0,92,0.00,,,0.02,weatherlink.com 1.10,2013-04-13 12:24:00,
2013-04-13 08:39:00,39.0,36.0,29.75,NNW,344,2.0,6.0,90,0.00,,,0.02,weatherlink.com 1.10,2013-04-13 12:39:00,
2013-04-13 08:54:00,39.3,36.0,29.75,North,360,3.0,5.0,88,0.00,,,0.02,weatherlink.com 1.10,2013-04-13 12:54:00,
2013-04-13 09:09:00,39.5,36.0,29.74,NNE,30,2.0,7.0,87,0.00,,,0.02,weatherlink.com 1.10,2013-04-13 13:09:00,
2013-04-13 09:24:00,40.0,36.0,29.75,North,349,5.0,5.0,86,0.00,,,0.02,weatherlink.com 1.10,2013-04-13 13:24:00,
2013-04-13 09:54:00,40.7,37.0,29.75,WNW,295,1.0,4.0,85,0.00,,,0.02,weatherlink.com 1.10,2013-04-13 13:54:00,
2013-04-13 10:09:00,40.9,37.0,29.75,North,5,0.0,3.0,86,0.00,,,0.02,weatherlink.com 1.10,2013-04-13 14:09:00,
2013-04-13 10:24:00,42.2,37.0,29.76,NNE,22,2.0,4.0,83,0.00,,,0.02,weatherlink.com 1.10,2013-04-13 14:24:00,
2013-04-13 10:39:00,42.3,37.0,29.75,SE,133,0.0,6.0,80,0.00,,,0.02,weatherlink.com 1.10,2013-04-13 14:39:00,
2013-04-13 10:54:00,43.0,37.0,29.75,WSW,244,2.0,4.0,80,0.00,,,0.02,weatherlink.com 1.10,2013-04-13 14:54:00,
2013-04-13 11:09:00,44.1,38.0,29.75,North,355,1.0,5.0,80,0.00,,,0.02,weatherlink.com 1.10,2013-04-13 15:09:00,
2013-04-13 11:24:00,45.6,38.0,29.75,NE,41,1.0,4.0,76,0.00,,,0.02,weatherlink.com 1.10,2013-04-13 15:24:00,
2013-04-13 11:39:00,47.8,40.0,29.75,NNE,20,2.0,7.0,73,0.00,,,0.02,weatherlink.com 1.10,2013-04-13 15:39:00,
2013-04-13 11:54:00,48.7,40.0,29.74,North,360,2.0,6.0,73,0.00,,,0.02,weatherlink.com 1.10,2013-04-13 15:54:00,
2013-04-13 12:09:00,50.5,40.0,29.74,SW,229,8.0,8.0,68,0.00,,,0.02,weatherlink.com 1.10,2013-04-13 16:09:00,
2013-04-13 12:24:00,51.3,41.0,29.73,North,355,2.0,5.0,67,0.00,,,0.02,weatherlink.com 1.10,2013-04-13 16:24:00,
2013-04-13 12:39:00,52.5,40.0,29.73,West,262,2.0,7.0,63,0.00,,,0.02,weatherlink.com 1.10,2013-04-13 16:39:00,
2013-04-13 12:54:00,53.1,40.0,29.73,SSE,155,0.0,6.0,62,0.00,,,0.02,weatherlink.com 1.10,2013-04-13 16:54:00,
2013-04-13 13:09:00,53.5,39.0,29.73,SE,128,2.0,7.0,59,0.00,,,0.02,weatherlink.com 1.10,2013-04-13 17:09:00,
2013-04-13 13:24:00,54.4,39.0,29.72,NNE,13,1.0,9.0,57,0.00,,,0.02,weatherlink.com 1.10,2013-04-13 17:24:00,
2013-04-13 13:39:00,55.4,41.0,29.72,South,181,2.0,9.0,58,0.00,,,0.02,weatherlink.com 1.10,2013-04-13 17:39:00,
2013-04-13 13:55:00,55.1,40.0,29.71,West,275,0.0,7.0,58,0.00,,,0.02,weatherlink.com 1.10,2013-04-13 17:55:00,
2013-04-13 14:10:00,53.9,38.0,29.70,SSW,209,1.0,6.0,55,0.00,,,0.02,weatherlink.com 1.10,2013-04-13 18:10:00,
2013-04-13 14:25:00,52.6,38.0,29.71,NW,322,1.0,7.0,59,0.00,,,0.02,weatherlink.com 1.10,2013-04-13 18:25:00,
2013-04-13 14:40:00,52.6,40.0,29.71,North,5,1.0,5.0,63,0.00,,,0.02,weatherlink.com 1.10,2013-04-13 18:40:00,
2013-04-13 14:55:00,52.6,39.0,29.71,NNW,344,1.0,6.0,60,0.00,,,0.02,weatherlink.com 1.10,2013-04-13 18:55:00,
2013-04-13 15:10:00,53.5,39.0,29.70,NNW,346,3.0,5.0,58,0.00,,,0.02,weatherlink.com 1.10,2013-04-13 19:10:00,
2013-04-13 15:25:00,53.6,39.0,29.70,NNE,15,1.0,6.0,59,0.00,,,0.02,weatherlink.com 1.10,2013-04-13 19:25:00,
2013-04-13 15:40:00,53.1,37.0,29.70,SSE,153,0.0,4.0,55,0.00,,,0.02,weatherlink.com 1.10,2013-04-13 19:40:00,
2013-04-13 15:55:00,52.8,38.0,29.70,ENE,68,0.0,5.0,58,0.00,,,0.02,weatherlink.com 1.10,2013-04-13 19:55:00,
2013-04-13 16:10:00,52.7,39.0,29.70,WNW,292,1.0,2.0,59,0.00,,,0.02,weatherlink.com 1.10,2013-04-13 20:10:00,
2013-04-13 16:25:00,52.7,38.0,29.70,West,279,1.0,4.0,58,0.00,,,0.02,weatherlink.com 1.10,2013-04-13 20:25:00,
2013-04-13 16:40:00,55.0,37.0,29.70,West,279,1.0,7.0,51,0.00,,,0.02,weatherlink.com 1.10,2013-04-13 20:40:00,
2013-04-13 16:55:00,55.0,36.0,29.71,South,172,3.0,5.0,49,0.00,,,0.02,weatherlink.com 1.10,2013-04-13 20:55:00,
2013-04-13 17:10:00,53.8,37.0,29.72,South,173,0.0,4.0,53,0.00,,,0.02,weatherlink.com 1.10,2013-04-13 21:10:00,
2013-04-13 17:25:00,53.3,37.0,29.73,SE,131,2.0,3.0,54,0.00,,,0.02,weatherlink.com 1.10,2013-04-13 21:25:00,
2013-04-13 17:40:00,52.9,40.0,29.73,South,184,0.0,1.0,61,0.00,,,0.02,weatherlink.com 1.10,2013-04-13 21:40:00,
2013-04-13 17:55:00,52.1,39.0,29.74,South,184,0.0,1.0,62,0.00,,,0.02,weatherlink.com 1.10,2013-04-13 21:55:00,
2013-04-13 18:10:00,51.7,39.0,29.74,West,266,0.0,1.0,62,0.00,,,0.02,weatherlink.com 1.10,2013-04-13 22:10:00,
2013-04-13 18:25:00,51.4,39.0,29.75,West,266,0.0,0.0,64,0.00,,,0.02,weatherlink.com 1.10,2013-04-13 22:25:00,
2013-04-13 18:40:00,51.1,38.0,29.75,SW,230,2.0,2.0,62,0.00,,,0.02,weatherlink.com 1.10,2013-04-13 22:40:00,
2013-04-13 18:55:00,50.9,40.0,29.75,South,187,0.0,2.0,67,0.00,,,0.02,weatherlink.com 1.10,2013-04-13 22:55:00,
2013-04-13 19:10:00,50.6,37.0,29.75,South,180,0.0,6.0,60,0.00,,,0.02,weatherlink.com 1.10,2013-04-13 23:10:00,
2013-04-13 19:25:00,50.5,40.0,29.75,WSW,244,0.0,0.0,67,0.00,,,0.02,weatherlink.com 1.10,2013-04-13 23:25:00,
2013-04-13 19:40:00,49.8,40.0,29.76,WSW,238,0.0,0.0,69,0.00,,,0.02,weatherlink.com 1.10,2013-04-13 23:40:00,
2013-04-13 19:55:00,49.1,40.0,29.77,WSW,238,0.0,0.0,71,0.00,,,0.02,weatherlink.com 1.10,2013-04-13 23:55:00,
2013-04-13 20:10:00,48.8,41.0,29.78,WSW,238,0.0,0.0,74,0.00,,,0.02,weatherlink.com 1.10,2013-04-14 00:10:00,
2013-04-13 20:25:00,48.6,41.0,29.78,SE,142,0.0,2.0,74,0.00,,,0.02,weatherlink.com 1.10,2013-04-14 00:25:00,
2013-04-13 20:40:00,48.2,41.0,29.79,SE,142,0.0,1.0,75,0.00,,,0.02,weatherlink.com 1.10,2013-04-14 00:40:00,
2013-04-13 20:55:00,47.9,40.0,29.79,SE,142,0.0,0.0,74,0.00,,,0.02,weatherlink.com 1.10,2013-04-14 00:55:00,
2013-04-13 21:10:00,47.8,40.0,29.79,South,190,0.0,2.0,75,0.00,,,0.02,weatherlink.com 1.10,2013-04-14 01:10:00,
2013-04-13 21:25:00,47.5,41.0,29.79,South,190,0.0,0.0,77,0.00,,,0.02,weatherlink.com 1.10,2013-04-14 01:25:00,
2013-04-13 21:40:00,47.1,41.0,29.79,South,190,0.0,0.0,79,0.00,,,0.02,weatherlink.com 1.10,2013-04-14 01:40:00,
2013-04-13 21:55:00,46.8,40.0,29.80,South,190,0.0,0.0,78,0.00,,,0.02,weatherlink.com 1.10,2013-04-14 01:55:00,
2013-04-13 22:10:00,46.5,40.0,29.80,South,190,0.0,2.0,79,0.00,,,0.02,weatherlink.com 1.10,2013-04-14 02:10:00,
2013-04-13 22:25:00,46.3,40.0,29.80,South,182,0.0,2.0,79,0.00,,,0.02,weatherlink.com 1.10,2013-04-14 02:25:00,
2013-04-13 22:40:00,46.1,40.0,29.80,South,173,0.0,2.0,80,0.00,,,0.02,weatherlink.com 1.10,2013-04-14 02:40:00,
2013-04-13 22:55:00,45.9,39.0,29.80,South,173,0.0,0.0,77,0.00,,,0.02,weatherlink.com 1.10,2013-04-14 02:55:00,
2013-04-13 23:10:00,46.1,39.0,29.81,South,173,0.0,0.0,76,0.00,,,0.02,weatherlink.com 1.10,2013-04-14 03:10:00,
2013-04-13 23:25:00,46.0,40.0,29.82,South,173,0.0,0.0,79,0.00,,,0.02,weatherlink.com 1.10,2013-04-14 03:25:00,
2013-04-13 23:40:00,46.0,40.0,29.82,SSE,163,1.0,3.0,79,0.00,,,0.02,weatherlink.com 1.10,2013-04-14 03:40:00,
2013-04-13 23:55:00,46.8,39.0,29.83,WSW,253,4.0,10.0,74,0.00,,,0.02,weatherlink.com 1.10,2013-04-14 03:55:00,